sensor_id;sensor_type;location;lat;lon;timestamp;temperature;humidity
12180;DHT22;6153;51.490;6.586;2022-08-19T00:01:09;18.50;99.90
12180;DHT22;6153;51.490;6.586;2022-08-19T00:04:11;18.50;99.90
12180;DHT22;6153;51.490;6.586;2022-08-19T00:07:12;18.50;99.90
12180;DHT22;6153;51.490;6.586;2022-08-19T00:10:13;18.40;99.90
12180;DHT22;6153;51.490;6.586;2022-08-19T00:13:14;18.40;99.90
12180;DHT22;6153;51.490;6.586;2022-08-19T00:16:16;18.40;99.90
12180;DHT22;6153;51.490;6.586;2022-08-19T00:19:20;18.40;99.90
12180;DHT22;6153;51.490;6.586;2022-08-19T00:22:21;18.30;99.90
12180;DHT22;6153;51.490;6.586;2022-08-19T00:25:22;18.00;99.90
12180;DHT22;6153;51.490;6.586;2022-08-19T00:28:23;17.90;99.90
12180;DHT22;6153;51.490;6.586;2022-08-19T00:31:23;17.90;99.90
12180;DHT22;6153;51.490;6.586;2022-08-19T00:34:25;18.00;99.90
12180;DHT22;6153;51.490;6.586;2022-08-19T00:37:29;18.00;99.90
12180;DHT22;6153;51.490;6.586;2022-08-19T00:40:30;18.10;99.90
12180;DHT22;6153;51.490;6.586;2022-08-19T00:43:30;18.10;99.90
12180;DHT22;6153;51.490;6.586;2022-08-19T00:46:32;18.10;99.90
12180;DHT22;6153;51.490;6.586;2022-08-19T00:52:38;18.00;99.90
12180;DHT22;6153;51.490;6.586;2022-08-19T00:55:53;18.00;99.90
12180;DHT22;6153;51.490;6.586;2022-08-19T00:58:55;18.00;99.90
12180;DHT22;6153;51.490;6.586;2022-08-19T01:01:56;17.90;99.90
12180;DHT22;6153;51.490;6.586;2022-08-19T01:04:58;17.70;99.90
12180;DHT22;6153;51.490;6.586;2022-08-19T01:07:59;17.60;99.90
12180;DHT22;6153;51.490;6.586;2022-08-19T01:11:00;17.50;99.90
12180;DHT22;6153;51.490;6.586;2022-08-19T01:14:01;17.50;99.90
12180;DHT22;6153;51.490;6.586;2022-08-19T01:17:02;17.60;99.90
12180;DHT22;6153;51.490;6.586;2022-08-19T01:20:04;17.60;99.90
12180;DHT22;6153;51.490;6.586;2022-08-19T01:23:04;17.60;99.90
12180;DHT22;6153;51.490;6.586;2022-08-19T01:26:05;17.60;99.90
12180;DHT22;6153;51.490;6.586;2022-08-19T01:29:06;17.50;99.90
12180;DHT22;6153;51.490;6.586;2022-08-19T01:32:12;17.50;99.90
12180;DHT22;6153;51.490;6.586;2022-08-19T01:35:13;17.50;99.90
12180;DHT22;6153;51.490;6.586;2022-08-19T01:38:21;17.50;99.90
12180;DHT22;6153;51.490;6.586;2022-08-19T01:41:22;17.40;99.90
12180;DHT22;6153;51.490;6.586;2022-08-19T01:44:23;17.40;99.90
12180;DHT22;6153;51.490;6.586;2022-08-19T01:47:24;17.30;99.90
12180;DHT22;6153;51.490;6.586;2022-08-19T01:50:24;17.30;99.90
12180;DHT22;6153;51.490;6.586;2022-08-19T01:53:25;17.20;99.90
12180;DHT22;6153;51.490;6.586;2022-08-19T01:56:26;17.20;99.90
12180;DHT22;6153;51.490;6.586;2022-08-19T01:59:26;17.30;99.90
12180;DHT22;6153;51.490;6.586;2022-08-19T02:02:27;17.20;99.90
12180;DHT22;6153;51.490;6.586;2022-08-19T02:05:28;17.20;99.90
12180;DHT22;6153;51.490;6.586;2022-08-19T02:08:29;17.20;99.90
12180;DHT22;6153;51.490;6.586;2022-08-19T02:11:31;17.20;99.90
12180;DHT22;6153;51.490;6.586;2022-08-19T02:14:33;17.20;99.90
12180;DHT22;6153;51.490;6.586;2022-08-19T02:17:34;17.10;99.90
12180;DHT22;6153;51.490;6.586;2022-08-19T02:20:35;17.10;99.90
12180;DHT22;6153;51.490;6.586;2022-08-19T02:23:36;17.30;99.90
12180;DHT22;6153;51.490;6.586;2022-08-19T02:26:37;17.30;99.90
12180;DHT22;6153;51.490;6.586;2022-08-19T02:29:37;17.20;99.90
12180;DHT22;6153;51.490;6.586;2022-08-19T02:32:37;17.00;99.90
12180;DHT22;6153;51.490;6.586;2022-08-19T02:35:41;16.90;99.90
12180;DHT22;6153;51.490;6.586;2022-08-19T02:38:42;16.90;99.90
12180;DHT22;6153;51.490;6.586;2022-08-19T02:41:42;17.00;99.90
12180;DHT22;6153;51.490;6.586;2022-08-19T02:44:43;17.00;99.90
12180;DHT22;6153;51.490;6.586;2022-08-19T02:47:44;17.10;99.90
12180;DHT22;6153;51.490;6.586;2022-08-19T02:50:44;17.20;99.90
12180;DHT22;6153;51.490;6.586;2022-08-19T02:53:45;17.10;99.90
12180;DHT22;6153;51.490;6.586;2022-08-19T02:56:46;16.90;99.90
12180;DHT22;6153;51.490;6.586;2022-08-19T02:59:46;16.90;99.90
12180;DHT22;6153;51.490;6.586;2022-08-19T03:02:47;17.00;99.90
12180;DHT22;6153;51.490;6.586;2022-08-19T03:05:48;17.00;99.90
12180;DHT22;6153;51.490;6.586;2022-08-19T03:08:49;17.10;99.90
12180;DHT22;6153;51.490;6.586;2022-08-19T03:11:49;17.10;99.90
12180;DHT22;6153;51.490;6.586;2022-08-19T03:14:50;17.20;99.90
12180;DHT22;6153;51.490;6.586;2022-08-19T03:17:52;17.30;99.90
12180;DHT22;6153;51.490;6.586;2022-08-19T03:20:52;17.30;99.90
12180;DHT22;6153;51.490;6.586;2022-08-19T03:23:55;17.40;99.90
12180;DHT22;6153;51.490;6.586;2022-08-19T03:26:56;17.40;99.90
12180;DHT22;6153;51.490;6.586;2022-08-19T03:29:57;17.40;99.90
12180;DHT22;6153;51.490;6.586;2022-08-19T03:32:58;17.40;99.90
12180;DHT22;6153;51.490;6.586;2022-08-19T03:35:59;17.30;99.90
12180;DHT22;6153;51.490;6.586;2022-08-19T03:39:00;17.30;99.90
12180;DHT22;6153;51.490;6.586;2022-08-19T03:42:01;17.30;99.90
12180;DHT22;6153;51.490;6.586;2022-08-19T03:45:03;17.20;99.90
12180;DHT22;6153;51.490;6.586;2022-08-19T03:48:03;17.30;99.90
12180;DHT22;6153;51.490;6.586;2022-08-19T03:51:04;17.20;99.90
12180;DHT22;6153;51.490;6.586;2022-08-19T03:54:06;17.20;99.90
12180;DHT22;6153;51.490;6.586;2022-08-19T03:57:08;17.20;99.90
12180;DHT22;6153;51.490;6.586;2022-08-19T04:00:09;17.10;99.90
12180;DHT22;6153;51.490;6.586;2022-08-19T04:03:10;17.00;99.90
12180;DHT22;6153;51.490;6.586;2022-08-19T04:09:14;16.80;99.90
12180;DHT22;6153;51.490;6.586;2022-08-19T04:12:15;16.80;99.90
12180;DHT22;6153;51.490;6.586;2022-08-19T04:15:15;16.90;99.90
12180;DHT22;6153;51.490;6.586;2022-08-19T04:18:16;16.90;99.90
12180;DHT22;6153;51.490;6.586;2022-08-19T04:21:19;16.90;99.90
12180;DHT22;6153;51.490;6.586;2022-08-19T04:24:20;17.00;99.90
12180;DHT22;6153;51.490;6.586;2022-08-19T04:27:21;17.00;99.90
12180;DHT22;6153;51.490;6.586;2022-08-19T04:30:22;17.00;99.90
12180;DHT22;6153;51.490;6.586;2022-08-19T04:33:23;17.00;99.90
12180;DHT22;6153;51.490;6.586;2022-08-19T04:36:28;16.90;99.90
12180;DHT22;6153;51.490;6.586;2022-08-19T04:39:29;16.90;99.90
12180;DHT22;6153;51.490;6.586;2022-08-19T04:42:48;17.00;99.90
12180;DHT22;6153;51.490;6.586;2022-08-19T04:45:48;16.80;99.90
12180;DHT22;6153;51.490;6.586;2022-08-19T04:48:50;16.90;99.90
12180;DHT22;6153;51.490;6.586;2022-08-19T04:51:51;16.90;99.90
12180;DHT22;6153;51.490;6.586;2022-08-19T04:54:54;17.00;99.90
12180;DHT22;6153;51.490;6.586;2022-08-19T04:57:55;17.10;99.90
12180;DHT22;6153;51.490;6.586;2022-08-19T05:00:56;17.20;99.90
12180;DHT22;6153;51.490;6.586;2022-08-19T05:03:57;17.20;99.90
12180;DHT22;6153;51.490;6.586;2022-08-19T05:06:58;17.30;99.90
12180;DHT22;6153;51.490;6.586;2022-08-19T05:09:58;17.30;99.90
12180;DHT22;6153;51.490;6.586;2022-08-19T05:12:59;17.30;99.90
12180;DHT22;6153;51.490;6.586;2022-08-19T05:15:59;17.40;99.90
12180;DHT22;6153;51.490;6.586;2022-08-19T05:19:00;17.40;99.90
12180;DHT22;6153;51.490;6.586;2022-08-19T05:22:19;17.60;99.90
12180;DHT22;6153;51.490;6.586;2022-08-19T05:25:34;17.60;99.90
12180;DHT22;6153;51.490;6.586;2022-08-19T05:28:35;17.60;99.90
12180;DHT22;6153;51.490;6.586;2022-08-19T05:31:35;17.70;99.90
12180;DHT22;6153;51.490;6.586;2022-08-19T05:34:36;17.80;99.90
12180;DHT22;6153;51.490;6.586;2022-08-19T05:37:38;17.90;99.90
12180;DHT22;6153;51.490;6.586;2022-08-19T05:40:40;18.00;99.90
12180;DHT22;6153;51.490;6.586;2022-08-19T05:43:40;18.00;99.90
12180;DHT22;6153;51.490;6.586;2022-08-19T05:46:42;18.20;99.90
12180;DHT22;6153;51.490;6.586;2022-08-19T05:49:43;18.30;99.90
12180;DHT22;6153;51.490;6.586;2022-08-19T05:52:43;18.30;99.90
12180;DHT22;6153;51.490;6.586;2022-08-19T05:55:45;18.50;99.90
12180;DHT22;6153;51.490;6.586;2022-08-19T05:58:45;18.60;99.90
12180;DHT22;6153;51.490;6.586;2022-08-19T06:01:46;18.50;99.90
12180;DHT22;6153;51.490;6.586;2022-08-19T06:04:46;18.60;99.90
12180;DHT22;6153;51.490;6.586;2022-08-19T06:07:47;18.70;99.90
12180;DHT22;6153;51.490;6.586;2022-08-19T06:10:47;18.70;99.90
12180;DHT22;6153;51.490;6.586;2022-08-19T06:13:49;18.90;99.90
12180;DHT22;6153;51.490;6.586;2022-08-19T06:16:52;18.90;99.90
12180;DHT22;6153;51.490;6.586;2022-08-19T06:19:53;18.90;99.90
12180;DHT22;6153;51.490;6.586;2022-08-19T06:22:53;19.00;99.90
12180;DHT22;6153;51.490;6.586;2022-08-19T06:25:54;19.20;99.90
12180;DHT22;6153;51.490;6.586;2022-08-19T06:28:54;19.30;99.90
12180;DHT22;6153;51.490;6.586;2022-08-19T06:31:56;19.50;99.90
12180;DHT22;6153;51.490;6.586;2022-08-19T06:34:57;19.50;99.90
12180;DHT22;6153;51.490;6.586;2022-08-19T06:37:57;19.50;99.90
12180;DHT22;6153;51.490;6.586;2022-08-19T06:41:02;19.70;99.90
12180;DHT22;6153;51.490;6.586;2022-08-19T06:44:03;19.80;99.90
12180;DHT22;6153;51.490;6.586;2022-08-19T06:47:05;19.90;99.90
12180;DHT22;6153;51.490;6.586;2022-08-19T06:50:06;19.90;99.90
12180;DHT22;6153;51.490;6.586;2022-08-19T06:53:07;19.90;99.90
12180;DHT22;6153;51.490;6.586;2022-08-19T06:56:07;20.10;99.90
12180;DHT22;6153;51.490;6.586;2022-08-19T06:59:09;20.30;99.90
12180;DHT22;6153;51.490;6.586;2022-08-19T07:02:10;20.50;99.90
12180;DHT22;6153;51.490;6.586;2022-08-19T07:05:11;20.40;99.90
12180;DHT22;6153;51.490;6.586;2022-08-19T07:08:12;20.40;99.90
12180;DHT22;6153;51.490;6.586;2022-08-19T07:11:13;20.60;99.90
12180;DHT22;6153;51.490;6.586;2022-08-19T07:14:15;20.90;99.90
12180;DHT22;6153;51.490;6.586;2022-08-19T07:17:18;21.10;99.90
12180;DHT22;6153;51.490;6.586;2022-08-19T07:20:20;21.30;99.90
12180;DHT22;6153;51.490;6.586;2022-08-19T07:23:20;21.20;99.90
12180;DHT22;6153;51.490;6.586;2022-08-19T07:26:23;21.40;99.90
12180;DHT22;6153;51.490;6.586;2022-08-19T07:29:24;21.30;99.90
12180;DHT22;6153;51.490;6.586;2022-08-19T07:32:24;21.70;99.90
12180;DHT22;6153;51.490;6.586;2022-08-19T07:35:28;21.80;99.90
12180;DHT22;6153;51.490;6.586;2022-08-19T07:38:28;21.80;99.90
12180;DHT22;6153;51.490;6.586;2022-08-19T07:41:29;21.90;99.90
12180;DHT22;6153;51.490;6.586;2022-08-19T07:44:30;21.80;99.90
12180;DHT22;6153;51.490;6.586;2022-08-19T07:47:31;21.60;99.90
12180;DHT22;6153;51.490;6.586;2022-08-19T07:50:31;21.50;99.90
12180;DHT22;6153;51.490;6.586;2022-08-19T07:53:32;22.00;99.90
12180;DHT22;6153;51.490;6.586;2022-08-19T07:56:33;22.10;99.90
12180;DHT22;6153;51.490;6.586;2022-08-19T07:59:33;22.40;99.90
12180;DHT22;6153;51.490;6.586;2022-08-19T08:02:34;22.50;99.90
12180;DHT22;6153;51.490;6.586;2022-08-19T08:05:34;22.60;99.90
12180;DHT22;6153;51.490;6.586;2022-08-19T08:08:53;22.10;99.90
12180;DHT22;6153;51.490;6.586;2022-08-19T08:12:14;22.30;99.90
12180;DHT22;6153;51.490;6.586;2022-08-19T08:15:15;22.10;99.90
12180;DHT22;6153;51.490;6.586;2022-08-19T08:18:16;22.00;99.90
12180;DHT22;6153;51.490;6.586;2022-08-19T08:21:17;22.50;99.90
12180;DHT22;6153;51.490;6.586;2022-08-19T08:24:18;22.70;99.90
12180;DHT22;6153;51.490;6.586;2022-08-19T08:27:18;22.70;99.90
12180;DHT22;6153;51.490;6.586;2022-08-19T08:30:21;22.40;99.90
12180;DHT22;6153;51.490;6.586;2022-08-19T08:33:23;22.80;99.90
12180;DHT22;6153;51.490;6.586;2022-08-19T08:36:24;23.00;99.90
12180;DHT22;6153;51.490;6.586;2022-08-19T08:39:25;23.50;99.90
12180;DHT22;6153;51.490;6.586;2022-08-19T08:42:30;23.10;99.90
12180;DHT22;6153;51.490;6.586;2022-08-19T08:45:33;23.10;99.90
12180;DHT22;6153;51.490;6.586;2022-08-19T08:51:39;23.70;99.90
12180;DHT22;6153;51.490;6.586;2022-08-19T08:54:43;24.00;99.90
12180;DHT22;6153;51.490;6.586;2022-08-19T09:00:46;24.00;99.90
12180;DHT22;6153;51.490;6.586;2022-08-19T09:03:46;24.30;99.90
12180;DHT22;6153;51.490;6.586;2022-08-19T09:10:29;24.70;99.90
12180;DHT22;6153;51.490;6.586;2022-08-19T09:13:34;24.60;99.90
12180;DHT22;6153;51.490;6.586;2022-08-19T09:16:38;24.70;99.90
12180;DHT22;6153;51.490;6.586;2022-08-19T09:19:54;24.70;99.90
12180;DHT22;6153;51.490;6.586;2022-08-19T09:22:55;24.70;99.90
12180;DHT22;6153;51.490;6.586;2022-08-19T09:25:55;25.00;99.90
12180;DHT22;6153;51.490;6.586;2022-08-19T09:28:56;24.80;99.90
12180;DHT22;6153;51.490;6.586;2022-08-19T09:31:58;25.00;99.90
12180;DHT22;6153;51.490;6.586;2022-08-19T09:34:59;25.10;99.90
12180;DHT22;6153;51.490;6.586;2022-08-19T09:38:00;24.80;99.90
12180;DHT22;6153;51.490;6.586;2022-08-19T09:41:08;25.10;99.90
12180;DHT22;6153;51.490;6.586;2022-08-19T09:44:10;25.40;99.90
12180;DHT22;6153;51.490;6.586;2022-08-19T09:47:13;25.40;99.90
12180;DHT22;6153;51.490;6.586;2022-08-19T09:50:14;25.50;99.90
12180;DHT22;6153;51.490;6.586;2022-08-19T09:53:14;25.60;99.90
12180;DHT22;6153;51.490;6.586;2022-08-19T09:56:15;25.80;99.90
12180;DHT22;6153;51.490;6.586;2022-08-19T09:59:15;25.50;99.90
12180;DHT22;6153;51.490;6.586;2022-08-19T10:02:16;25.10;99.90
12180;DHT22;6153;51.490;6.586;2022-08-19T10:05:16;25.10;99.90
12180;DHT22;6153;51.490;6.586;2022-08-19T10:08:36;25.10;99.90
12180;DHT22;6153;51.490;6.586;2022-08-19T10:11:39;25.40;99.90
12180;DHT22;6153;51.490;6.586;2022-08-19T10:14:40;26.20;99.90
12180;DHT22;6153;51.490;6.586;2022-08-19T10:17:40;25.60;99.90
12180;DHT22;6153;51.490;6.586;2022-08-19T10:20:41;25.60;99.90
12180;DHT22;6153;51.490;6.586;2022-08-19T10:23:43;25.30;99.90
12180;DHT22;6153;51.490;6.586;2022-08-19T10:26:47;25.60;99.90
12180;DHT22;6153;51.490;6.586;2022-08-19T10:29:49;26.30;99.90
12180;DHT22;6153;51.490;6.586;2022-08-19T10:32:49;26.00;99.90
12180;DHT22;6153;51.490;6.586;2022-08-19T10:35:58;26.20;99.90
12180;DHT22;6153;51.490;6.586;2022-08-19T10:39:00;27.00;99.90
12180;DHT22;6153;51.490;6.586;2022-08-19T10:42:07;27.20;99.90
12180;DHT22;6153;51.490;6.586;2022-08-19T10:45:10;26.80;99.90
12180;DHT22;6153;51.490;6.586;2022-08-19T10:48:11;26.50;99.90
12180;DHT22;6153;51.490;6.586;2022-08-19T10:51:12;26.00;99.90
12180;DHT22;6153;51.490;6.586;2022-08-19T10:54:32;25.90;99.90
12180;DHT22;6153;51.490;6.586;2022-08-19T10:57:51;25.80;99.90
12180;DHT22;6153;51.490;6.586;2022-08-19T11:00:54;26.20;99.90
12180;DHT22;6153;51.490;6.586;2022-08-19T11:03:55;26.50;99.90
12180;DHT22;6153;51.490;6.586;2022-08-19T11:06:57;26.90;99.90
12180;DHT22;6153;51.490;6.586;2022-08-19T11:09:58;27.40;99.90
12180;DHT22;6153;51.490;6.586;2022-08-19T11:12:58;26.30;99.90
12180;DHT22;6153;51.490;6.586;2022-08-19T11:16:01;26.70;99.90
12180;DHT22;6153;51.490;6.586;2022-08-19T11:19:02;27.00;99.90
12180;DHT22;6153;51.490;6.586;2022-08-19T11:22:03;26.30;99.90
12180;DHT22;6153;51.490;6.586;2022-08-19T11:25:04;25.90;99.90
12180;DHT22;6153;51.490;6.586;2022-08-19T11:28:04;26.70;99.90
12180;DHT22;6153;51.490;6.586;2022-08-19T11:31:12;27.20;99.90
12180;DHT22;6153;51.490;6.586;2022-08-19T11:34:15;27.80;99.90
12180;DHT22;6153;51.490;6.586;2022-08-19T11:37:16;28.40;99.90
12180;DHT22;6153;51.490;6.586;2022-08-19T11:40:17;28.60;99.90
12180;DHT22;6153;51.490;6.586;2022-08-19T11:43:18;28.80;99.90
12180;DHT22;6153;51.490;6.586;2022-08-19T11:46:18;29.00;99.90
12180;DHT22;6153;51.490;6.586;2022-08-19T11:49:19;29.10;99.90
12180;DHT22;6153;51.490;6.586;2022-08-19T11:52:21;28.40;99.90
12180;DHT22;6153;51.490;6.586;2022-08-19T11:55:22;28.20;99.50
12180;DHT22;6153;51.490;6.586;2022-08-19T11:58:22;27.60;99.90
12180;DHT22;6153;51.490;6.586;2022-08-19T12:01:24;28.10;99.40
12180;DHT22;6153;51.490;6.586;2022-08-19T12:04:25;28.20;99.00
12180;DHT22;6153;51.490;6.586;2022-08-19T12:07:26;28.60;98.30
12180;DHT22;6153;51.490;6.586;2022-08-19T12:10:26;28.50;98.10
12180;DHT22;6153;51.490;6.586;2022-08-19T12:13:28;28.60;99.00
12180;DHT22;6153;51.490;6.586;2022-08-19T12:16:31;28.50;99.40
12180;DHT22;6153;51.490;6.586;2022-08-19T12:19:32;29.60;98.50
12180;DHT22;6153;51.490;6.586;2022-08-19T12:22:34;28.20;99.20
12180;DHT22;6153;51.490;6.586;2022-08-19T12:25:35;27.90;99.90
12180;DHT22;6153;51.490;6.586;2022-08-19T12:28:36;27.10;99.90
12180;DHT22;6153;51.490;6.586;2022-08-19T12:31:37;27.30;99.90
12180;DHT22;6153;51.490;6.586;2022-08-19T12:34:38;27.70;99.90
12180;DHT22;6153;51.490;6.586;2022-08-19T12:37:39;27.30;99.90
12180;DHT22;6153;51.490;6.586;2022-08-19T12:40:44;28.20;99.70
12180;DHT22;6153;51.490;6.586;2022-08-19T12:43:45;28.70;97.90
12180;DHT22;6153;51.490;6.586;2022-08-19T12:46:47;28.20;97.90
12180;DHT22;6153;51.490;6.586;2022-08-19T12:49:48;28.00;97.20
12180;DHT22;6153;51.490;6.586;2022-08-19T12:52:49;29.00;97.40
12180;DHT22;6153;51.490;6.586;2022-08-19T12:55:59;29.70;96.70
12180;DHT22;6153;51.490;6.586;2022-08-19T12:59:01;29.90;96.50
12180;DHT22;6153;51.490;6.586;2022-08-19T13:02:03;29.50;96.00
12180;DHT22;6153;51.490;6.586;2022-08-19T13:05:07;28.70;96.80
12180;DHT22;6153;51.490;6.586;2022-08-19T13:08:08;28.50;96.00
12180;DHT22;6153;51.490;6.586;2022-08-19T13:11:10;28.10;95.90
12180;DHT22;6153;51.490;6.586;2022-08-19T13:14:11;28.20;95.90
12180;DHT22;6153;51.490;6.586;2022-08-19T13:17:12;28.30;95.60
12180;DHT22;6153;51.490;6.586;2022-08-19T13:20:14;28.30;96.80
12180;DHT22;6153;51.490;6.586;2022-08-19T13:23:14;27.80;98.70
12180;DHT22;6153;51.490;6.586;2022-08-19T13:26:15;27.30;99.90
12180;DHT22;6153;51.490;6.586;2022-08-19T13:29:16;27.80;99.40
12180;DHT22;6153;51.490;6.586;2022-08-19T13:32:35;27.80;99.70
12180;DHT22;6153;51.490;6.586;2022-08-19T13:35:58;28.50;99.50
12180;DHT22;6153;51.490;6.586;2022-08-19T13:39:00;28.20;99.80
12180;DHT22;6153;51.490;6.586;2022-08-19T13:42:01;28.20;99.90
12180;DHT22;6153;51.490;6.586;2022-08-19T13:45:03;28.60;99.60
12180;DHT22;6153;51.490;6.586;2022-08-19T13:48:07;29.00;99.50
12180;DHT22;6153;51.490;6.586;2022-08-19T13:51:09;29.40;97.90
12180;DHT22;6153;51.490;6.586;2022-08-19T13:54:11;29.30;98.00
12180;DHT22;6153;51.490;6.586;2022-08-19T13:57:13;29.70;98.20
12180;DHT22;6153;51.490;6.586;2022-08-19T14:00:15;28.60;98.30
12180;DHT22;6153;51.490;6.586;2022-08-19T14:03:17;27.40;99.20
12180;DHT22;6153;51.490;6.586;2022-08-19T14:06:18;27.30;99.60
12180;DHT22;6153;51.490;6.586;2022-08-19T14:09:19;27.80;99.90
12180;DHT22;6153;51.490;6.586;2022-08-19T14:12:20;28.40;98.20
12180;DHT22;6153;51.490;6.586;2022-08-19T14:15:22;29.00;96.00
12180;DHT22;6153;51.490;6.586;2022-08-19T14:18:23;29.20;95.10
12180;DHT22;6153;51.490;6.586;2022-08-19T14:21:25;29.30;95.30
12180;DHT22;6153;51.490;6.586;2022-08-19T14:24:26;28.60;95.40
12180;DHT22;6153;51.490;6.586;2022-08-19T14:27:26;28.10;95.90
12180;DHT22;6153;51.490;6.586;2022-08-19T14:30:28;28.30;94.80
12180;DHT22;6153;51.490;6.586;2022-08-19T14:33:29;28.50;94.50
12180;DHT22;6153;51.490;6.586;2022-08-19T14:36:29;28.60;95.70
12180;DHT22;6153;51.490;6.586;2022-08-19T14:39:32;28.60;96.40
12180;DHT22;6153;51.490;6.586;2022-08-19T14:42:33;29.10;96.10
12180;DHT22;6153;51.490;6.586;2022-08-19T14:45:35;28.70;95.90
12180;DHT22;6153;51.490;6.586;2022-08-19T14:48:36;28.10;96.00
12180;DHT22;6153;51.490;6.586;2022-08-19T14:51:38;28.10;96.40
12180;DHT22;6153;51.490;6.586;2022-08-19T14:54:39;28.30;95.50
12180;DHT22;6153;51.490;6.586;2022-08-19T14:57:41;28.30;95.60
12180;DHT22;6153;51.490;6.586;2022-08-19T15:00:41;29.00;94.70
12180;DHT22;6153;51.490;6.586;2022-08-19T15:03:42;28.00;94.90
12180;DHT22;6153;51.490;6.586;2022-08-19T15:06:42;28.50;95.50
12180;DHT22;6153;51.490;6.586;2022-08-19T15:09:45;28.70;95.30
12180;DHT22;6153;51.490;6.586;2022-08-19T15:12:48;28.10;95.90
12180;DHT22;6153;51.490;6.586;2022-08-19T15:15:52;28.50;96.20
12180;DHT22;6153;51.490;6.586;2022-08-19T15:18:54;28.20;95.80
12180;DHT22;6153;51.490;6.586;2022-08-19T15:21:55;28.30;96.30
12180;DHT22;6153;51.490;6.586;2022-08-19T15:24:55;28.70;96.10
12180;DHT22;6153;51.490;6.586;2022-08-19T15:27:56;28.70;96.80
12180;DHT22;6153;51.490;6.586;2022-08-19T15:30:57;28.40;96.90
12180;DHT22;6153;51.490;6.586;2022-08-19T15:33:57;28.20;97.00
12180;DHT22;6153;51.490;6.586;2022-08-19T15:36:58;28.40;97.50
12180;DHT22;6153;51.490;6.586;2022-08-19T15:39:59;28.20;97.40
12180;DHT22;6153;51.490;6.586;2022-08-19T15:42:59;28.40;97.80
12180;DHT22;6153;51.490;6.586;2022-08-19T15:46:00;28.00;98.30
12180;DHT22;6153;51.490;6.586;2022-08-19T15:49:01;27.60;99.00
12180;DHT22;6153;51.490;6.586;2022-08-19T15:52:01;27.50;99.70
12180;DHT22;6153;51.490;6.586;2022-08-19T15:55:03;27.90;99.20
12180;DHT22;6153;51.490;6.586;2022-08-19T15:58:05;27.50;98.70
12180;DHT22;6153;51.490;6.586;2022-08-19T16:01:24;27.20;98.80
12180;DHT22;6153;51.490;6.586;2022-08-19T16:04:48;26.90;99.60
12180;DHT22;6153;51.490;6.586;2022-08-19T16:08:06;27.10;99.90
12180;DHT22;6153;51.490;6.586;2022-08-19T16:11:12;27.50;98.70
12180;DHT22;6153;51.490;6.586;2022-08-19T16:14:13;27.10;99.20
12180;DHT22;6153;51.490;6.586;2022-08-19T16:17:14;27.30;99.40
12180;DHT22;6153;51.490;6.586;2022-08-19T16:20:14;27.60;99.30
12180;DHT22;6153;51.490;6.586;2022-08-19T16:37:42;26.70;99.90
12180;DHT22;6153;51.490;6.586;2022-08-19T16:40:44;27.20;99.90
12180;DHT22;6153;51.490;6.586;2022-08-19T16:43:53;28.20;99.90
12180;DHT22;6153;51.490;6.586;2022-08-19T16:46:54;27.70;99.90
12180;DHT22;6153;51.490;6.586;2022-08-19T16:49:55;27.50;99.90
12180;DHT22;6153;51.490;6.586;2022-08-19T16:52:55;27.30;99.90
12180;DHT22;6153;51.490;6.586;2022-08-19T16:55:57;27.30;99.90
12180;DHT22;6153;51.490;6.586;2022-08-19T16:58:58;27.80;99.90
12180;DHT22;6153;51.490;6.586;2022-08-19T17:01:59;28.30;99.90
12180;DHT22;6153;51.490;6.586;2022-08-19T17:05:00;27.60;99.90
12180;DHT22;6153;51.490;6.586;2022-08-19T17:08:02;27.30;99.90
12180;DHT22;6153;51.490;6.586;2022-08-19T17:11:02;26.70;99.90
12180;DHT22;6153;51.490;6.586;2022-08-19T17:14:04;26.60;99.90
12180;DHT22;6153;51.490;6.586;2022-08-19T17:17:04;27.00;99.90
12180;DHT22;6153;51.490;6.586;2022-08-19T17:20:05;26.40;99.90
12180;DHT22;6153;51.490;6.586;2022-08-19T17:23:07;26.10;99.90
12180;DHT22;6153;51.490;6.586;2022-08-19T17:26:08;26.10;99.90
12180;DHT22;6153;51.490;6.586;2022-08-19T17:29:08;25.90;99.90
12180;DHT22;6153;51.490;6.586;2022-08-19T17:32:09;25.80;99.90
12180;DHT22;6153;51.490;6.586;2022-08-19T17:35:10;25.70;99.90
12180;DHT22;6153;51.490;6.586;2022-08-19T17:38:12;25.50;99.90
12180;DHT22;6153;51.490;6.586;2022-08-19T17:41:16;25.40;99.90
12180;DHT22;6153;51.490;6.586;2022-08-19T17:44:16;25.20;99.90
12180;DHT22;6153;51.490;6.586;2022-08-19T17:47:18;25.10;99.90
12180;DHT22;6153;51.490;6.586;2022-08-19T17:50:20;25.00;99.90
12180;DHT22;6153;51.490;6.586;2022-08-19T17:53:21;24.80;99.90
12180;DHT22;6153;51.490;6.586;2022-08-19T17:56:21;24.70;99.90
12180;DHT22;6153;51.490;6.586;2022-08-19T17:59:22;24.60;99.90
12180;DHT22;6153;51.490;6.586;2022-08-19T18:02:23;24.50;99.90
12180;DHT22;6153;51.490;6.586;2022-08-19T18:05:26;24.40;99.90
12180;DHT22;6153;51.490;6.586;2022-08-19T18:08:28;24.40;99.90
12180;DHT22;6153;51.490;6.586;2022-08-19T18:11:29;24.40;99.90
12180;DHT22;6153;51.490;6.586;2022-08-19T18:14:32;24.30;99.90
12180;DHT22;6153;51.490;6.586;2022-08-19T18:17:33;24.30;99.90
12180;DHT22;6153;51.490;6.586;2022-08-19T18:20:35;24.20;99.90
12180;DHT22;6153;51.490;6.586;2022-08-19T18:23:36;24.20;99.90
12180;DHT22;6153;51.490;6.586;2022-08-19T18:26:37;24.10;99.90
12180;DHT22;6153;51.490;6.586;2022-08-19T18:29:38;24.00;99.90
12180;DHT22;6153;51.490;6.586;2022-08-19T18:32:39;23.80;99.90
12180;DHT22;6153;51.490;6.586;2022-08-19T18:35:42;23.90;99.90
12180;DHT22;6153;51.490;6.586;2022-08-19T18:38:45;23.90;99.90
12180;DHT22;6153;51.490;6.586;2022-08-19T18:42:04;23.80;99.90
12180;DHT22;6153;51.490;6.586;2022-08-19T18:45:23;23.80;99.90
12180;DHT22;6153;51.490;6.586;2022-08-19T18:48:42;23.70;99.90
12180;DHT22;6153;51.490;6.586;2022-08-19T18:52:02;23.60;99.90
12180;DHT22;6153;51.490;6.586;2022-08-19T18:55:03;23.50;99.90
12180;DHT22;6153;51.490;6.586;2022-08-19T18:58:05;23.50;99.90
12180;DHT22;6153;51.490;6.586;2022-08-19T19:04:12;23.30;99.90
12180;DHT22;6153;51.490;6.586;2022-08-19T19:07:13;23.30;99.90
12180;DHT22;6153;51.490;6.586;2022-08-19T19:10:13;23.30;99.90
12180;DHT22;6153;51.490;6.586;2022-08-19T19:13:14;23.30;99.90
12180;DHT22;6153;51.490;6.586;2022-08-19T19:16:15;23.30;99.90
12180;DHT22;6153;51.490;6.586;2022-08-19T19:19:16;23.20;99.90
12180;DHT22;6153;51.490;6.586;2022-08-19T19:22:18;23.20;99.90
12180;DHT22;6153;51.490;6.586;2022-08-19T19:25:19;23.20;99.90
12180;DHT22;6153;51.490;6.586;2022-08-19T19:28:20;23.20;99.90
12180;DHT22;6153;51.490;6.586;2022-08-19T19:31:24;23.10;99.90
12180;DHT22;6153;51.490;6.586;2022-08-19T19:34:25;23.00;99.90
12180;DHT22;6153;51.490;6.586;2022-08-19T19:37:26;23.00;99.90
12180;DHT22;6153;51.490;6.586;2022-08-19T19:40:26;22.90;99.90
12180;DHT22;6153;51.490;6.586;2022-08-19T19:43:27;22.90;99.90
12180;DHT22;6153;51.490;6.586;2022-08-19T19:46:30;22.80;99.90
12180;DHT22;6153;51.490;6.586;2022-08-19T19:49:31;22.90;99.90
12180;DHT22;6153;51.490;6.586;2022-08-19T19:52:32;22.80;99.90
12180;DHT22;6153;51.490;6.586;2022-08-19T19:55:33;22.70;99.90
12180;DHT22;6153;51.490;6.586;2022-08-19T19:58:33;22.70;99.90
12180;DHT22;6153;51.490;6.586;2022-08-19T20:01:35;22.70;99.90